sensor_id;sensor_type;location;lat;lon;timestamp;temperature;humidity
33699;DHT22;20032;52.436;13.312;2023-04-06T00:00:36;4.20;99.90
33699;DHT22;20032;52.436;13.312;2023-04-06T00:03:02;4.20;99.90
33699;DHT22;20032;52.436;13.312;2023-04-06T00:05:28;4.00;99.90
33699;DHT22;20032;52.436;13.312;2023-04-06T00:07:57;4.00;99.90
33699;DHT22;20032;52.436;13.312;2023-04-06T00:10:22;3.90;99.90
33699;DHT22;20032;52.436;13.312;2023-04-06T00:12:47;3.80;99.90
33699;DHT22;20032;52.436;13.312;2023-04-06T00:15:13;3.70;99.90
33699;DHT22;20032;52.436;13.312;2023-04-06T00:17:38;3.80;99.90
33699;DHT22;20032;52.436;13.312;2023-04-06T00:20:04;3.80;99.90
33699;DHT22;20032;52.436;13.312;2023-04-06T00:22:30;3.80;99.90
33699;DHT22;20032;52.436;13.312;2023-04-06T00:24:55;3.90;99.90
33699;DHT22;20032;52.436;13.312;2023-04-06T00:27:21;4.00;99.90
33699;DHT22;20032;52.436;13.312;2023-04-06T00:29:46;4.00;99.90
33699;DHT22;20032;52.436;13.312;2023-04-06T00:32:12;4.10;99.90
33699;DHT22;20032;52.436;13.312;2023-04-06T00:34:37;4.10;99.90
33699;DHT22;20032;52.436;13.312;2023-04-06T00:37:03;4.20;99.90
33699;DHT22;20032;52.436;13.312;2023-04-06T00:39:28;4.20;99.90
33699;DHT22;20032;52.436;13.312;2023-04-06T00:41:54;4.10;99.90
33699;DHT22;20032;52.436;13.312;2023-04-06T00:44:21;4.10;99.90
33699;DHT22;20032;52.436;13.312;2023-04-06T00:46:47;4.00;99.90
33699;DHT22;20032;52.436;13.312;2023-04-06T00:49:12;4.00;99.90
33699;DHT22;20032;52.436;13.312;2023-04-06T00:51:38;4.10;99.90
33699;DHT22;20032;52.436;13.312;2023-04-06T00:54:03;4.20;99.90
33699;DHT22;20032;52.436;13.312;2023-04-06T00:56:29;4.10;99.90
33699;DHT22;20032;52.436;13.312;2023-04-06T00:58:55;4.10;99.90
33699;DHT22;20032;52.436;13.312;2023-04-06T01:01:21;4.00;99.90
33699;DHT22;20032;52.436;13.312;2023-04-06T01:03:46;3.70;99.90
33699;DHT22;20032;52.436;13.312;2023-04-06T01:06:15;3.40;99.90
33699;DHT22;20032;52.436;13.312;2023-04-06T01:08:40;3.20;99.90
33699;DHT22;20032;52.436;13.312;2023-04-06T01:11:07;3.10;99.90
33699;DHT22;20032;52.436;13.312;2023-04-06T01:13:32;3.00;99.90
33699;DHT22;20032;52.436;13.312;2023-04-06T01:15:58;3.00;99.90
33699;DHT22;20032;52.436;13.312;2023-04-06T01:18:26;3.00;99.90
33699;DHT22;20032;52.436;13.312;2023-04-06T01:20:52;3.00;99.90
33699;DHT22;20032;52.436;13.312;2023-04-06T01:23:17;3.00;99.90
33699;DHT22;20032;52.436;13.312;2023-04-06T01:25:42;3.10;99.90
33699;DHT22;20032;52.436;13.312;2023-04-06T01:28:08;3.20;99.90
33699;DHT22;20032;52.436;13.312;2023-04-06T01:30:33;3.20;99.90
33699;DHT22;20032;52.436;13.312;2023-04-06T01:32:59;3.20;99.90
33699;DHT22;20032;52.436;13.312;2023-04-06T01:35:26;3.10;99.90
33699;DHT22;20032;52.436;13.312;2023-04-06T01:37:52;3.10;99.90
33699;DHT22;20032;52.436;13.312;2023-04-06T01:40:17;3.10;99.90
33699;DHT22;20032;52.436;13.312;2023-04-06T01:42:43;3.10;99.90
33699;DHT22;20032;52.436;13.312;2023-04-06T01:45:09;3.00;99.90
33699;DHT22;20032;52.436;13.312;2023-04-06T01:47:34;2.90;99.90
33699;DHT22;20032;52.436;13.312;2023-04-06T01:50:00;2.80;99.90
33699;DHT22;20032;52.436;13.312;2023-04-06T01:52:25;2.70;99.90
33699;DHT22;20032;52.436;13.312;2023-04-06T01:54:51;2.80;99.90
33699;DHT22;20032;52.436;13.312;2023-04-06T01:57:16;2.80;99.90
33699;DHT22;20032;52.436;13.312;2023-04-06T01:59:42;2.80;99.90
33699;DHT22;20032;52.436;13.312;2023-04-06T02:02:07;2.70;99.90
33699;DHT22;20032;52.436;13.312;2023-04-06T02:04:33;2.60;99.90
33699;DHT22;20032;52.436;13.312;2023-04-06T02:06:58;2.60;99.90
33699;DHT22;20032;52.436;13.312;2023-04-06T02:09:23;2.50;99.90
33699;DHT22;20032;52.436;13.312;2023-04-06T02:11:49;2.40;99.90
33699;DHT22;20032;52.436;13.312;2023-04-06T02:14:15;2.30;99.90
33699;DHT22;20032;52.436;13.312;2023-04-06T02:16:40;2.30;99.90
33699;DHT22;20032;52.436;13.312;2023-04-06T02:19:06;2.30;99.90
33699;DHT22;20032;52.436;13.312;2023-04-06T02:21:32;2.30;99.90
33699;DHT22;20032;52.436;13.312;2023-04-06T02:23:57;2.20;99.90
33699;DHT22;20032;52.436;13.312;2023-04-06T02:26:23;2.20;99.90
33699;DHT22;20032;52.436;13.312;2023-04-06T02:28:48;2.30;99.90
33699;DHT22;20032;52.436;13.312;2023-04-06T02:31:14;2.30;99.90
33699;DHT22;20032;52.436;13.312;2023-04-06T02:33:40;2.30;99.90
33699;DHT22;20032;52.436;13.312;2023-04-06T02:36:06;2.40;99.90
33699;DHT22;20032;52.436;13.312;2023-04-06T02:38:32;2.40;99.90
33699;DHT22;20032;52.436;13.312;2023-04-06T02:40:57;2.30;99.90
33699;DHT22;20032;52.436;13.312;2023-04-06T02:43:23;2.30;99.90
33699;DHT22;20032;52.436;13.312;2023-04-06T02:45:48;2.30;99.90
33699;DHT22;20032;52.436;13.312;2023-04-06T02:48:14;2.30;99.90
33699;DHT22;20032;52.436;13.312;2023-04-06T02:50:39;2.30;99.90
33699;DHT22;20032;52.436;13.312;2023-04-06T02:53:05;2.30;99.90
33699;DHT22;20032;52.436;13.312;2023-04-06T02:55:31;2.20;99.90
33699;DHT22;20032;52.436;13.312;2023-04-06T02:57:56;2.10;99.90
33699;DHT22;20032;52.436;13.312;2023-04-06T03:00:22;1.90;99.90
33699;DHT22;20032;52.436;13.312;2023-04-06T03:02:47;1.80;99.90
33699;DHT22;20032;52.436;13.312;2023-04-06T03:05:13;1.90;99.90
33699;DHT22;20032;52.436;13.312;2023-04-06T03:07:38;1.80;99.90
33699;DHT22;20032;52.436;13.312;2023-04-06T03:10:04;1.70;99.90
33699;DHT22;20032;52.436;13.312;2023-04-06T03:12:30;1.70;99.90
33699;DHT22;20032;52.436;13.312;2023-04-06T03:14:55;1.70;99.90
33699;DHT22;20032;52.436;13.312;2023-04-06T03:17:21;1.60;99.90
33699;DHT22;20032;52.436;13.312;2023-04-06T03:19:46;1.60;99.90
33699;DHT22;20032;52.436;13.312;2023-04-06T03:22:12;1.70;99.90
33699;DHT22;20032;52.436;13.312;2023-04-06T03:24:37;1.70;99.90
33699;DHT22;20032;52.436;13.312;2023-04-06T03:27:02;1.80;99.90
33699;DHT22;20032;52.436;13.312;2023-04-06T03:29:28;1.80;99.90
33699;DHT22;20032;52.436;13.312;2023-04-06T03:31:53;1.80;99.90
33699;DHT22;20032;52.436;13.312;2023-04-06T03:34:19;1.90;99.90
33699;DHT22;20032;52.436;13.312;2023-04-06T03:36:45;1.90;99.90
33699;DHT22;20032;52.436;13.312;2023-04-06T03:39:12;1.80;99.90
33699;DHT22;20032;52.436;13.312;2023-04-06T03:41:38;1.70;99.90
33699;DHT22;20032;52.436;13.312;2023-04-06T03:44:05;1.70;99.90
33699;DHT22;20032;52.436;13.312;2023-04-06T03:46:31;1.60;99.90
33699;DHT22;20032;52.436;13.312;2023-04-06T03:48:56;1.60;99.90
33699;DHT22;20032;52.436;13.312;2023-04-06T03:51:22;1.60;99.90
33699;DHT22;20032;52.436;13.312;2023-04-06T03:53:47;1.70;99.90
33699;DHT22;20032;52.436;13.312;2023-04-06T03:56:13;1.60;99.90
33699;DHT22;20032;52.436;13.312;2023-04-06T03:58:38;1.60;99.90
33699;DHT22;20032;52.436;13.312;2023-04-06T04:01:04;1.70;99.90
33699;DHT22;20032;52.436;13.312;2023-04-06T04:03:29;1.70;99.90
33699;DHT22;20032;52.436;13.312;2023-04-06T04:05:55;1.70;99.90
33699;DHT22;20032;52.436;13.312;2023-04-06T04:08:20;1.60;99.90
33699;DHT22;20032;52.436;13.312;2023-04-06T04:10:46;1.70;99.90
33699;DHT22;20032;52.436;13.312;2023-04-06T04:13:12;1.70;99.90
33699;DHT22;20032;52.436;13.312;2023-04-06T04:15:37;1.80;99.90
33699;DHT22;20032;52.436;13.312;2023-04-06T04:18:03;1.80;99.90
33699;DHT22;20032;52.436;13.312;2023-04-06T04:20:28;1.80;99.90
33699;DHT22;20032;52.436;13.312;2023-04-06T04:22:54;1.80;99.90
33699;DHT22;20032;52.436;13.312;2023-04-06T04:25:19;1.80;99.90
33699;DHT22;20032;52.436;13.312;2023-04-06T04:27:45;1.80;99.90
33699;DHT22;20032;52.436;13.312;2023-04-06T04:30:11;1.70;99.90
33699;DHT22;20032;52.436;13.312;2023-04-06T04:32:36;1.70;99.90
33699;DHT22;20032;52.436;13.312;2023-04-06T04:35:02;1.70;99.90
33699;DHT22;20032;52.436;13.312;2023-04-06T04:37:27;1.70;99.90
33699;DHT22;20032;52.436;13.312;2023-04-06T04:39:53;1.60;99.90
33699;DHT22;20032;52.436;13.312;2023-04-06T04:42:18;1.50;99.90
33699;DHT22;20032;52.436;13.312;2023-04-06T04:44:44;1.60;99.90
33699;DHT22;20032;52.436;13.312;2023-04-06T04:47:10;1.60;99.90
33699;DHT22;20032;52.436;13.312;2023-04-06T04:49:35;1.70;99.90
33699;DHT22;20032;52.436;13.312;2023-04-06T04:52:01;1.80;99.90
33699;DHT22;20032;52.436;13.312;2023-04-06T04:54:26;1.90;99.90
33699;DHT22;20032;52.436;13.312;2023-04-06T04:56:51;1.90;99.90
33699;DHT22;20032;52.436;13.312;2023-04-06T04:59:17;1.90;99.90
33699;DHT22;20032;52.436;13.312;2023-04-06T05:01:43;1.90;99.90
33699;DHT22;20032;52.436;13.312;2023-04-06T05:04:09;1.90;99.90
33699;DHT22;20032;52.436;13.312;2023-04-06T05:06:34;1.80;99.90
33699;DHT22;20032;52.436;13.312;2023-04-06T05:09:00;1.80;99.90
33699;DHT22;20032;52.436;13.312;2023-04-06T05:11:25;1.90;99.90
33699;DHT22;20032;52.436;13.312;2023-04-06T05:13:51;2.00;99.90
33699;DHT22;20032;52.436;13.312;2023-04-06T05:16:17;2.00;99.90
33699;DHT22;20032;52.436;13.312;2023-04-06T05:18:42;2.10;99.90
33699;DHT22;20032;52.436;13.312;2023-04-06T05:21:09;2.10;99.90
33699;DHT22;20032;52.436;13.312;2023-04-06T05:23:34;2.10;99.90
33699;DHT22;20032;52.436;13.312;2023-04-06T05:26:00;2.10;99.90
33699;DHT22;20032;52.436;13.312;2023-04-06T05:28:25;2.20;99.90
33699;DHT22;20032;52.436;13.312;2023-04-06T05:30:51;2.20;99.90
33699;DHT22;20032;52.436;13.312;2023-04-06T05:33:17;2.20;99.90
33699;DHT22;20032;52.436;13.312;2023-04-06T05:35:42;2.30;99.90
33699;DHT22;20032;52.436;13.312;2023-04-06T05:38:08;2.30;99.90
33699;DHT22;20032;52.436;13.312;2023-04-06T05:40:35;2.40;99.90
33699;DHT22;20032;52.436;13.312;2023-04-06T05:43:02;2.40;99.90
33699;DHT22;20032;52.436;13.312;2023-04-06T05:45:27;2.50;99.90
33699;DHT22;20032;52.436;13.312;2023-04-06T05:47:53;2.60;99.90
33699;DHT22;20032;52.436;13.312;2023-04-06T05:50:18;2.70;99.90
33699;DHT22;20032;52.436;13.312;2023-04-06T05:52:44;2.70;99.90
33699;DHT22;20032;52.436;13.312;2023-04-06T05:55:11;2.90;99.90
33699;DHT22;20032;52.436;13.312;2023-04-06T05:57:37;2.90;99.90
33699;DHT22;20032;52.436;13.312;2023-04-06T06:00:03;3.00;99.90
33699;DHT22;20032;52.436;13.312;2023-04-06T06:02:30;3.10;99.90
33699;DHT22;20032;52.436;13.312;2023-04-06T06:04:56;3.10;99.90
33699;DHT22;20032;52.436;13.312;2023-04-06T06:07:23;3.20;99.90
33699;DHT22;20032;52.436;13.312;2023-04-06T06:09:48;3.30;99.90
33699;DHT22;20032;52.436;13.312;2023-04-06T06:12:14;3.40;99.90
33699;DHT22;20032;52.436;13.312;2023-04-06T06:14:40;3.50;99.90
33699;DHT22;20032;52.436;13.312;2023-04-06T06:17:05;3.50;99.90
33699;DHT22;20032;52.436;13.312;2023-04-06T06:19:30;3.60;99.90
33699;DHT22;20032;52.436;13.312;2023-04-06T06:21:56;3.60;99.90
33699;DHT22;20032;52.436;13.312;2023-04-06T06:24:22;3.70;99.90
33699;DHT22;20032;52.436;13.312;2023-04-06T06:26:47;3.80;99.90
33699;DHT22;20032;52.436;13.312;2023-04-06T06:29:14;3.90;99.90
33699;DHT22;20032;52.436;13.312;2023-04-06T06:31:40;4.10;99.90
33699;DHT22;20032;52.436;13.312;2023-04-06T06:34:05;4.20;99.90
33699;DHT22;20032;52.436;13.312;2023-04-06T06:36:32;4.30;99.90
33699;DHT22;20032;52.436;13.312;2023-04-06T06:38:58;4.40;99.90
33699;DHT22;20032;52.436;13.312;2023-04-06T06:41:24;4.60;99.90
33699;DHT22;20032;52.436;13.312;2023-04-06T06:43:51;4.70;99.90
33699;DHT22;20032;52.436;13.312;2023-04-06T06:46:16;4.80;99.90
33699;DHT22;20032;52.436;13.312;2023-04-06T06:48:42;4.90;99.90
33699;DHT22;20032;52.436;13.312;2023-04-06T06:51:08;5.00;99.90
33699;DHT22;20032;52.436;13.312;2023-04-06T06:53:34;4.90;99.90
33699;DHT22;20032;52.436;13.312;2023-04-06T06:56:00;4.80;99.90
33699;DHT22;20032;52.436;13.312;2023-04-06T06:58:26;4.80;99.90
33699;DHT22;20032;52.436;13.312;2023-04-06T07:00:56;4.80;99.90
33699;DHT22;20032;52.436;13.312;2023-04-06T07:03:22;5.00;99.90
33699;DHT22;20032;52.436;13.312;2023-04-06T07:05:48;5.20;99.90
33699;DHT22;20032;52.436;13.312;2023-04-06T07:08:19;5.40;99.90
33699;DHT22;20032;52.436;13.312;2023-04-06T07:10:44;5.50;99.90
33699;DHT22;20032;52.436;13.312;2023-04-06T07:13:10;5.60;99.90
33699;DHT22;20032;52.436;13.312;2023-04-06T07:15:35;5.80;99.90
33699;DHT22;20032;52.436;13.312;2023-04-06T07:18:02;5.70;99.90
33699;DHT22;20032;52.436;13.312;2023-04-06T07:20:27;5.80;99.90
33699;DHT22;20032;52.436;13.312;2023-04-06T07:22:53;5.80;99.90
33699;DHT22;20032;52.436;13.312;2023-04-06T07:25:19;5.90;99.90
33699;DHT22;20032;52.436;13.312;2023-04-06T07:27:44;6.10;99.90
33699;DHT22;20032;52.436;13.312;2023-04-06T07:30:10;6.20;99.90
33699;DHT22;20032;52.436;13.312;2023-04-06T07:32:36;6.40;99.90
33699;DHT22;20032;52.436;13.312;2023-04-06T07:35:02;6.40;99.90
33699;DHT22;20032;52.436;13.312;2023-04-06T07:37:27;6.50;99.90
33699;DHT22;20032;52.436;13.312;2023-04-06T07:39:53;6.60;99.90
33699;DHT22;20032;52.436;13.312;2023-04-06T07:42:18;6.60;99.90
33699;DHT22;20032;52.436;13.312;2023-04-06T07:44:44;6.70;99.90
33699;DHT22;20032;52.436;13.312;2023-04-06T07:47:09;6.70;99.90
33699;DHT22;20032;52.436;13.312;2023-04-06T07:49:35;6.70;99.90
33699;DHT22;20032;52.436;13.312;2023-04-06T07:52:00;6.70;99.90
33699;DHT22;20032;52.436;13.312;2023-04-06T07:54:28;6.90;99.90
33699;DHT22;20032;52.436;13.312;2023-04-06T07:56:53;6.90;99.90
33699;DHT22;20032;52.436;13.312;2023-04-06T07:59:19;6.70;99.90
33699;DHT22;20032;52.436;13.312;2023-04-06T08:01:44;6.70;99.90
33699;DHT22;20032;52.436;13.312;2023-04-06T08:04:10;6.80;99.90
33699;DHT22;20032;52.436;13.312;2023-04-06T08:06:35;6.90;99.90
33699;DHT22;20032;52.436;13.312;2023-04-06T08:09:02;7.00;99.90
33699;DHT22;20032;52.436;13.312;2023-04-06T08:11:27;7.10;99.90
33699;DHT22;20032;52.436;13.312;2023-04-06T08:13:54;7.30;99.90
33699;DHT22;20032;52.436;13.312;2023-04-06T08:16:21;7.30;99.90
33699;DHT22;20032;52.436;13.312;2023-04-06T08:18:47;7.20;99.90
33699;DHT22;20032;52.436;13.312;2023-04-06T08:21:12;7.40;99.90
33699;DHT22;20032;52.436;13.312;2023-04-06T08:23:38;7.50;99.90
33699;DHT22;20032;52.436;13.312;2023-04-06T08:26:03;7.70;99.90
33699;DHT22;20032;52.436;13.312;2023-04-06T08:28:29;7.90;99.90
33699;DHT22;20032;52.436;13.312;2023-04-06T08:30:54;8.20;99.90
33699;DHT22;20032;52.436;13.312;2023-04-06T08:33:20;8.20;99.90
33699;DHT22;20032;52.436;13.312;2023-04-06T08:35:45;8.10;99.90
33699;DHT22;20032;52.436;13.312;2023-04-06T08:38:11;8.30;99.90
33699;DHT22;20032;52.436;13.312;2023-04-06T08:40:38;8.30;99.90
33699;DHT22;20032;52.436;13.312;2023-04-06T08:43:08;8.50;99.90
33699;DHT22;20032;52.436;13.312;2023-04-06T08:45:34;8.60;99.90
33699;DHT22;20032;52.436;13.312;2023-04-06T08:48:00;8.80;99.90
33699;DHT22;20032;52.436;13.312;2023-04-06T08:50:29;8.90;99.90
33699;DHT22;20032;52.436;13.312;2023-04-06T08:52:55;8.80;99.90
33699;DHT22;20032;52.436;13.312;2023-04-06T08:55:21;9.00;99.90
33699;DHT22;20032;52.436;13.312;2023-04-06T08:57:47;9.30;99.90
33699;DHT22;20032;52.436;13.312;2023-04-06T09:00:14;9.40;99.90
33699;DHT22;20032;52.436;13.312;2023-04-06T09:02:42;9.20;99.90
33699;DHT22;20032;52.436;13.312;2023-04-06T09:05:08;9.10;99.90
33699;DHT22;20032;52.436;13.312;2023-04-06T09:07:36;9.30;99.90
33699;DHT22;20032;52.436;13.312;2023-04-06T09:10:01;9.40;99.90
33699;DHT22;20032;52.436;13.312;2023-04-06T09:12:28;9.30;99.80
33699;DHT22;20032;52.436;13.312;2023-04-06T09:14:55;9.50;99.90
33699;DHT22;20032;52.436;13.312;2023-04-06T09:17:24;9.70;99.90
33699;DHT22;20032;52.436;13.312;2023-04-06T09:19:50;10.00;99.90
33699;DHT22;20032;52.436;13.312;2023-04-06T09:22:16;10.10;98.30
33699;DHT22;20032;52.436;13.312;2023-04-06T09:27:14;10.50;97.90
33699;DHT22;20032;52.436;13.312;2023-04-06T09:29:41;10.50;97.60
33699;DHT22;20032;52.436;13.312;2023-04-06T09:32:08;10.40;95.30
33699;DHT22;20032;52.436;13.312;2023-04-06T09:34:36;10.60;96.90
33699;DHT22;20032;52.436;13.312;2023-04-06T09:37:13;10.50;95.30
33699;DHT22;20032;52.436;13.312;2023-04-06T09:39:39;10.70;95.60
33699;DHT22;20032;52.436;13.312;2023-04-06T09:42:05;11.10;94.20
33699;DHT22;20032;52.436;13.312;2023-04-06T09:44:30;11.00;93.70
33699;DHT22;20032;52.436;13.312;2023-04-06T09:46:56;11.20;94.30
33699;DHT22;20032;52.436;13.312;2023-04-06T09:49:22;11.40;92.70
33699;DHT22;20032;52.436;13.312;2023-04-06T09:51:59;11.20;92.40
33699;DHT22;20032;52.436;13.312;2023-04-06T09:54:28;11.30;93.10
33699;DHT22;20032;52.436;13.312;2023-04-06T09:57:07;11.50;93.70
33699;DHT22;20032;52.436;13.312;2023-04-06T10:00:03;11.50;91.40
33699;DHT22;20032;52.436;13.312;2023-04-06T10:05:42;11.00;91.60
33699;DHT22;20032;52.436;13.312;2023-04-06T10:08:10;10.90;92.00
33699;DHT22;20032;52.436;13.312;2023-04-06T10:10:36;11.40;92.10
33699;DHT22;20032;52.436;13.312;2023-04-06T10:13:02;11.70;91.90
33699;DHT22;20032;52.436;13.312;2023-04-06T10:15:29;12.10;91.20
33699;DHT22;20032;52.436;13.312;2023-04-06T10:17:56;11.90;88.70
33699;DHT22;20032;52.436;13.312;2023-04-06T10:20:43;12.00;89.00
33699;DHT22;20032;52.436;13.312;2023-04-06T10:25:53;11.70;86.30
33699;DHT22;20032;52.436;13.312;2023-04-06T10:28:19;10.90;88.70
33699;DHT22;20032;52.436;13.312;2023-04-06T10:30:45;10.60;89.90
33699;DHT22;20032;52.436;13.312;2023-04-06T10:33:13;10.70;89.80
33699;DHT22;20032;52.436;13.312;2023-04-06T10:35:39;10.70;90.70
33699;DHT22;20032;52.436;13.312;2023-04-06T10:38:06;11.20;90.90
33699;DHT22;20032;52.436;13.312;2023-04-06T10:40:36;12.20;85.90
33699;DHT22;20032;52.436;13.312;2023-04-06T10:43:10;12.30;80.80
33699;DHT22;20032;52.436;13.312;2023-04-06T10:45:37;12.70;80.10
33699;DHT22;20032;52.436;13.312;2023-04-06T10:48:19;13.10;81.30
33699;DHT22;20032;52.436;13.312;2023-04-06T10:50:47;13.40;82.20
33699;DHT22;20032;52.436;13.312;2023-04-06T10:53:21;13.20;77.90
33699;DHT22;20032;52.436;13.312;2023-04-06T10:55:48;12.60;79.80
33699;DHT22;20032;52.436;13.312;2023-04-06T10:58:14;12.50;80.70
33699;DHT22;20032;52.436;13.312;2023-04-06T11:00:48;12.60;79.80
33699;DHT22;20032;52.436;13.312;2023-04-06T11:03:14;13.20;80.00
33699;DHT22;20032;52.436;13.312;2023-04-06T11:05:44;13.70;74.50
33699;DHT22;20032;52.436;13.312;2023-04-06T11:08:10;13.70;70.20
33699;DHT22;20032;52.436;13.312;2023-04-06T11:10:36;13.30;71.70
33699;DHT22;20032;52.436;13.312;2023-04-06T11:13:01;13.50;72.50
33699;DHT22;20032;52.436;13.312;2023-04-06T11:15:34;13.10;73.90
33699;DHT22;20032;52.436;13.312;2023-04-06T11:18:03;13.40;72.70
33699;DHT22;20032;52.436;13.312;2023-04-06T11:20:29;13.30;74.80
33699;DHT22;20032;52.436;13.312;2023-04-06T11:22:54;13.50;70.70
33699;DHT22;20032;52.436;13.312;2023-04-06T11:25:20;13.80;70.40
33699;DHT22;20032;52.436;13.312;2023-04-06T11:27:46;14.10;71.10
33699;DHT22;20032;52.436;13.312;2023-04-06T11:30:13;14.30;68.50
33699;DHT22;20032;52.436;13.312;2023-04-06T11:32:41;14.50;69.50
33699;DHT22;20032;52.436;13.312;2023-04-06T11:35:10;14.30;68.90
33699;DHT22;20032;52.436;13.312;2023-04-06T11:37:36;14.40;66.90
33699;DHT22;20032;52.436;13.312;2023-04-06T11:40:02;14.80;65.20
33699;DHT22;20032;52.436;13.312;2023-04-06T11:42:29;14.80;65.00
33699;DHT22;20032;52.436;13.312;2023-04-06T11:44:56;14.80;65.60
33699;DHT22;20032;52.436;13.312;2023-04-06T11:47:33;15.30;65.60
33699;DHT22;20032;52.436;13.312;2023-04-06T11:50:14;16.60;65.30
33699;DHT22;20032;52.436;13.312;2023-04-06T11:52:40;16.60;62.80
33699;DHT22;20032;52.436;13.312;2023-04-06T11:55:16;16.60;61.80
33699;DHT22;20032;52.436;13.312;2023-04-06T11:57:42;16.70;59.70
33699;DHT22;20032;52.436;13.312;2023-04-06T12:00:08;16.90;59.00
33699;DHT22;20032;52.436;13.312;2023-04-06T12:02:35;16.50;58.30
33699;DHT22;20032;52.436;13.312;2023-04-06T12:05:02;16.70;59.30
33699;DHT22;20032;52.436;13.312;2023-04-06T12:07:29;16.60;57.60
33699;DHT22;20032;52.436;13.312;2023-04-06T12:09:55;16.70;59.80
33699;DHT22;20032;52.436;13.312;2023-04-06T12:12:20;17.00;57.30
33699;DHT22;20032;52.436;13.312;2023-04-06T12:14:46;17.10;57.10
33699;DHT22;20032;52.436;13.312;2023-04-06T12:17:11;16.80;57.20
33699;DHT22;20032;52.436;13.312;2023-04-06T12:19:37;17.40;56.80
33699;DHT22;20032;52.436;13.312;2023-04-06T12:22:02;18.00;56.50
33699;DHT22;20032;52.436;13.312;2023-04-06T12:24:28;18.00;55.10
33699;DHT22;20032;52.436;13.312;2023-04-06T12:26:54;18.00;55.40
33699;DHT22;20032;52.436;13.312;2023-04-06T12:29:20;17.80;54.60
33699;DHT22;20032;52.436;13.312;2023-04-06T12:31:45;17.50;57.20
33699;DHT22;20032;52.436;13.312;2023-04-06T12:34:11;17.80;57.10
33699;DHT22;20032;52.436;13.312;2023-04-06T12:36:37;18.50;55.00
33699;DHT22;20032;52.436;13.312;2023-04-06T12:39:04;17.80;55.90
33699;DHT22;20032;52.436;13.312;2023-04-06T12:41:29;17.30;55.80
33699;DHT22;20032;52.436;13.312;2023-04-06T12:43:55;17.70;54.80
33699;DHT22;20032;52.436;13.312;2023-04-06T12:46:21;17.70;55.40
33699;DHT22;20032;52.436;13.312;2023-04-06T12:48:46;18.00;54.70
33699;DHT22;20032;52.436;13.312;2023-04-06T12:51:13;17.80;54.90
33699;DHT22;20032;52.436;13.312;2023-04-06T12:53:38;18.30;56.00
33699;DHT22;20032;52.436;13.312;2023-04-06T12:56:12;18.70;57.40
33699;DHT22;20032;52.436;13.312;2023-04-06T12:58:37;18.80;52.90
33699;DHT22;20032;52.436;13.312;2023-04-06T13:01:06;18.10;54.30
33699;DHT22;20032;52.436;13.312;2023-04-06T13:03:32;18.70;54.70
33699;DHT22;20032;52.436;13.312;2023-04-06T13:06:00;18.60;53.00
33699;DHT22;20032;52.436;13.312;2023-04-06T13:08:26;17.90;53.90
33699;DHT22;20032;52.436;13.312;2023-04-06T13:10:52;16.70;55.20
33699;DHT22;20032;52.436;13.312;2023-04-06T13:13:23;16.60;56.40
33699;DHT22;20032;52.436;13.312;2023-04-06T13:15:50;16.90;55.80
33699;DHT22;20032;52.436;13.312;2023-04-06T13:18:16;18.00;55.50
33699;DHT22;20032;52.436;13.312;2023-04-06T13:20:42;18.90;53.40
33699;DHT22;20032;52.436;13.312;2023-04-06T13:23:07;19.60;53.00
33699;DHT22;20032;52.436;13.312;2023-04-06T13:25:33;19.20;53.60
33699;DHT22;20032;52.436;13.312;2023-04-06T13:27:58;19.40;54.10
33699;DHT22;20032;52.436;13.312;2023-04-06T13:30:24;19.60;53.10
33699;DHT22;20032;52.436;13.312;2023-04-06T13:32:50;19.50;52.20
33699;DHT22;20032;52.436;13.312;2023-04-06T13:35:16;18.10;52.70
33699;DHT22;20032;52.436;13.312;2023-04-06T13:37:42;18.20;54.70
33699;DHT22;20032;52.436;13.312;2023-04-06T13:40:09;18.50;54.30
33699;DHT22;20032;52.436;13.312;2023-04-06T13:42:34;18.70;56.60
33699;DHT22;20032;52.436;13.312;2023-04-06T13:45:01;18.70;53.00
33699;DHT22;20032;52.436;13.312;2023-04-06T13:47:27;18.60;53.30
33699;DHT22;20032;52.436;13.312;2023-04-06T13:49:53;18.80;54.70
33699;DHT22;20032;52.436;13.312;2023-04-06T13:52:19;18.60;53.00
33699;DHT22;20032;52.436;13.312;2023-04-06T13:54:45;18.60;55.20
33699;DHT22;20032;52.436;13.312;2023-04-06T13:57:11;19.30;53.60
33699;DHT22;20032;52.436;13.312;2023-04-06T13:59:37;18.80;52.70
33699;DHT22;20032;52.436;13.312;2023-04-06T14:02:05;18.60;54.00
33699;DHT22;20032;52.436;13.312;2023-04-06T14:04:31;18.60;54.90
33699;DHT22;20032;52.436;13.312;2023-04-06T14:06:57;18.60;53.90
33699;DHT22;20032;52.436;13.312;2023-04-06T14:09:23;19.20;53.90
33699;DHT22;20032;52.436;13.312;2023-04-06T14:11:50;18.90;53.80
33699;DHT22;20032;52.436;13.312;2023-04-06T14:14:16;18.10;54.00
33699;DHT22;20032;52.436;13.312;2023-04-06T14:16:41;17.50;56.60
33699;DHT22;20032;52.436;13.312;2023-04-06T14:19:12;17.40;55.40
33699;DHT22;20032;52.436;13.312;2023-04-06T14:21:38;16.90;56.60
33699;DHT22;20032;52.436;13.312;2023-04-06T14:24:06;17.10;57.90
33699;DHT22;20032;52.436;13.312;2023-04-06T14:26:32;17.40;57.40
33699;DHT22;20032;52.436;13.312;2023-04-06T14:28:59;17.20;56.70
33699;DHT22;20032;52.436;13.312;2023-04-06T14:31:25;17.00;56.90
33699;DHT22;20032;52.436;13.312;2023-04-06T14:33:51;17.50;56.30
33699;DHT22;20032;52.436;13.312;2023-04-06T14:36:17;18.20;55.80
33699;DHT22;20032;52.436;13.312;2023-04-06T14:38:42;18.10;56.20
33699;DHT22;20032;52.436;13.312;2023-04-06T14:41:15;18.50;55.00
33699;DHT22;20032;52.436;13.312;2023-04-06T14:43:40;18.30;55.40
33699;DHT22;20032;52.436;13.312;2023-04-06T14:46:06;18.40;55.20
33699;DHT22;20032;52.436;13.312;2023-04-06T14:48:35;17.90;55.10
33699;DHT22;20032;52.436;13.312;2023-04-06T14:51:01;17.10;56.30
33699;DHT22;20032;52.436;13.312;2023-04-06T14:53:27;16.70;57.20
33699;DHT22;20032;52.436;13.312;2023-04-06T14:55:53;16.80;58.30
33699;DHT22;20032;52.436;13.312;2023-04-06T14:58:20;17.10;56.20
33699;DHT22;20032;52.436;13.312;2023-04-06T15:00:46;16.10;57.10
33699;DHT22;20032;52.436;13.312;2023-04-06T15:03:12;15.60;58.10
33699;DHT22;20032;52.436;13.312;2023-04-06T15:05:38;15.70;59.70
33699;DHT22;20032;52.436;13.312;2023-04-06T15:08:03;16.40;57.00
33699;DHT22;20032;52.436;13.312;2023-04-06T15:10:31;16.60;57.30
33699;DHT22;20032;52.436;13.312;2023-04-06T15:12:58;17.10;57.50
33699;DHT22;20032;52.436;13.312;2023-04-06T15:15:25;17.90;55.20
33699;DHT22;20032;52.436;13.312;2023-04-06T15:17:51;18.10;56.50
33699;DHT22;20032;52.436;13.312;2023-04-06T15:20:16;17.20;55.40
33699;DHT22;20032;52.436;13.312;2023-04-06T15:22:42;17.30;55.30
33699;DHT22;20032;52.436;13.312;2023-04-06T15:25:08;17.50;55.80
33699;DHT22;20032;52.436;13.312;2023-04-06T15:27:33;17.70;54.60